Pagrindinis puslapis
METAR-TAF:

METAR-TAF

Oro uostai :

Førde, Norvegija

platuma: 61-27N, ilguma: 005-52E, Aukštis: 150 m

Dabartinis oras

Ataskaita buvo paskelbta 34 minutes, ne 05:50 UTC
Vėjas 3 kt iš Vakarų/Pietvakarių
Temperatūra -2°C
Drėgmė 100%
Slėgis 993 hPa
Matomumas: 1200 m
Išsisklaidę debesys ne aukštis 400 ft
Su prošvaistėmis ne aukštis 600 ft
sniegas, rūkana

METAR: ENBL 280550Z 24003KT 1200 SHSN BR SCT004 BKN006 M02/M02 Q0993

Laikas: 07:24 (06:24 UTC)


TAF: trūkstamas

Orai ataskaitas ir orų prognozės (METAR, TAF).

turimą stotys yra geltonos ir raudonos taškus žemėlapyje.

Perkelti pele per norėdami pamatyti stoties vardą.

Tada spustelėkite, norėdami matyti oro stebėjimo ir prognozės.

Norėdami pakeisti žemėlapį: spustelėkite ant žalios mygtukų su juodo kryžiaus žemyn,; žalią mygtuką su brūkšneliu, jei norite nutolinti; arba žalių rodyklių gretimoms žemėlapius.


METAR-TAF: